Terminal Aerodrome Forecast
Issued by NWS

Home | Current Version | Previous Version | Graphics & Text | Print | Product List | Glossary On
Versions: 1 2 3 4 5 6 7 8 9 10 11 12 13 14 15 16 17 18 19 20 21 22 23
000
FTUS43 KMPX 051432 AAB
TAFAXN
TAF AMD
KAXN 051432Z 0515/0612 17011KT P6SM SCT250
     FM051700 18014G22KT P6SM SCT045 BKN250
     FM060000 17008KT P6SM VCSH BKN045 OVC090
      TEMPO 0600/0603 VRB30G45KT 3/4SM +TSRA OVC015CB
     FM060400 14008KT 4SM SHRA BR VCTS BKN025CB OVC050
     FM060800 05010KT 2SM SHRA BR BKN006 OVC012=

USA.gov is the U.S. government's official web portal to all federal, state and local government web resources and services.